<?xml version="1.0" encoding="UTF-8" standalone="no" ?>
<gpx xmlns="http://www.topografix.com/GPX/1/1" xmlns:xsi="http://www.w3.org/2001/XMLSchema-instance" xsi:schemaLocation="http://www.topografix.com/GPX/1/1 http://www.topografix.com/GPX/1/1/gpx.xsd" version="1.1" creator="VisuGPX - https://www.visugpx.com">
  <metadata>
    <name>bitume</name>
  </metadata>
  <wpt lat="47.2596" lon="0.10728">
    <ele>29.9</ele>
    <name><![CDATA[001]]></name>
  </wpt>
  <wpt lat="47.25414" lon="0.1054">
    <ele>26.5</ele>
    <name><![CDATA[002]]></name>
  </wpt>
  <wpt lat="47.25199" lon="0.10326">
    <ele>26.3</ele>
    <name><![CDATA[003]]></name>
  </wpt>
  <wpt lat="47.24589" lon="0.10318">
    <ele>28.2</ele>
    <name><![CDATA[004]]></name>
  </wpt>
  <wpt lat="47.24553" lon="0.1056">
    <ele>29.1</ele>
    <name><![CDATA[005]]></name>
  </wpt>
  <wpt lat="47.24299" lon="0.11058">
    <ele>29.7</ele>
    <name><![CDATA[006]]></name>
  </wpt>
  <wpt lat="47.23984" lon="0.11423">
    <ele>30.7</ele>
    <name><![CDATA[007]]></name>
  </wpt>
  <wpt lat="47.23897" lon="0.11935">
    <ele>30.8</ele>
    <name><![CDATA[008]]></name>
  </wpt>
  <wpt lat="47.23801" lon="0.1195">
    <ele>31.8</ele>
    <name><![CDATA[009]]></name>
  </wpt>
  <wpt lat="47.23695" lon="0.11949">
    <ele>32.5</ele>
    <name><![CDATA[010]]></name>
  </wpt>
  <wpt lat="47.23556" lon="0.11994">
    <ele>31.3</ele>
    <name><![CDATA[011]]></name>
  </wpt>
  <wpt lat="47.23506" lon="0.12036">
    <ele>33.8</ele>
    <name><![CDATA[012]]></name>
  </wpt>
  <wpt lat="47.23477" lon="0.12027">
    <ele>34.8</ele>
    <name><![CDATA[013]]></name>
  </wpt>
  <wpt lat="47.23415" lon="0.1204">
    <ele>36.1</ele>
    <name><![CDATA[014]]></name>
  </wpt>
  <wpt lat="47.23034" lon="0.11283">
    <ele>32.8</ele>
    <name><![CDATA[015]]></name>
  </wpt>
  <wpt lat="47.22618" lon="0.10428">
    <ele>32.6</ele>
    <name><![CDATA[016]]></name>
  </wpt>
  <wpt lat="47.22162" lon="0.09354">
    <ele>33.1</ele>
    <name><![CDATA[017]]></name>
  </wpt>
  <wpt lat="47.22213" lon="0.09217">
    <ele>31.9</ele>
    <name><![CDATA[018]]></name>
  </wpt>
  <wpt lat="47.22076" lon="0.08818">
    <ele>32.9</ele>
    <name><![CDATA[019]]></name>
  </wpt>
  <wpt lat="47.21715" lon="0.07607">
    <ele>32.7</ele>
    <name><![CDATA[020]]></name>
  </wpt>
  <wpt lat="47.21766" lon="0.07118">
    <ele>30.9</ele>
    <name><![CDATA[021]]></name>
  </wpt>
  <wpt lat="47.22032" lon="0.06131">
    <ele>31.1</ele>
    <name><![CDATA[022]]></name>
  </wpt>
  <wpt lat="47.22118" lon="0.05935">
    <ele>29.3</ele>
    <name><![CDATA[023]]></name>
  </wpt>
  <wpt lat="47.2272" lon="0.05103">
    <ele>28.8</ele>
    <name><![CDATA[024]]></name>
  </wpt>
  <wpt lat="47.22734" lon="0.05007">
    <ele>28.7</ele>
    <name><![CDATA[025]]></name>
  </wpt>
  <wpt lat="47.22217" lon="0.04652">
    <ele>32.9</ele>
    <name><![CDATA[026]]></name>
  </wpt>
  <wpt lat="47.22261" lon="0.04676">
    <ele>31.1</ele>
    <name><![CDATA[027]]></name>
  </wpt>
  <wpt lat="47.22565" lon="0.04002">
    <ele>29.4</ele>
    <name><![CDATA[028]]></name>
  </wpt>
  <wpt lat="47.22425" lon="0.03802">
    <ele>30.3</ele>
    <name><![CDATA[029]]></name>
  </wpt>
  <wpt lat="47.22324" lon="0.03625">
    <ele>32</ele>
    <name><![CDATA[030]]></name>
  </wpt>
  <wpt lat="47.22259" lon="0.0349">
    <ele>34.7</ele>
    <name><![CDATA[031]]></name>
  </wpt>
  <trk>
    <name><![CDATA[bitume_2]]></name>
    <trkseg>
      <trkpt lat="47.2221" lon="0.09218">
        <ele>33</ele>
        <time>2021-07-29T09:53:45Z</time>
      </trkpt>
      <trkpt lat="47.22208" lon="0.09207">
        <ele>33</ele>
        <time>2021-07-29T09:54:16Z</time>
      </trkpt>
      <trkpt lat="47.22208" lon="0.09192">
        <ele>34</ele>
        <time>2021-07-29T09:54:26Z</time>
      </trkpt>
      <trkpt lat="47.22206" lon="0.09174">
        <ele>34</ele>
        <time>2021-07-29T09:54:35Z</time>
      </trkpt>
      <trkpt lat="47.22201" lon="0.09161">
        <ele>33</ele>
        <time>2021-07-29T09:54:42Z</time>
      </trkpt>
      <trkpt lat="47.22197" lon="0.09149">
        <ele>33</ele>
        <time>2021-07-29T09:54:49Z</time>
      </trkpt>
      <trkpt lat="47.2219" lon="0.09135">
        <ele>33</ele>
        <time>2021-07-29T09:54:58Z</time>
      </trkpt>
      <trkpt lat="47.22186" lon="0.09121">
        <ele>34</ele>
        <time>2021-07-29T09:55:07Z</time>
      </trkpt>
      <trkpt lat="47.2218" lon="0.09108">
        <ele>34</ele>
        <time>2021-07-29T09:55:27Z</time>
      </trkpt>
      <trkpt lat="47.22177" lon="0.09094">
        <ele>33</ele>
        <time>2021-07-29T09:55:36Z</time>
      </trkpt>
      <trkpt lat="47.22176" lon="0.09081">
        <ele>33</ele>
        <time>2021-07-29T09:55:45Z</time>
      </trkpt>
      <trkpt lat="47.22172" lon="0.09067">
        <ele>34</ele>
        <time>2021-07-29T09:55:54Z</time>
      </trkpt>
      <trkpt lat="47.22168" lon="0.09054">
        <ele>33</ele>
        <time>2021-07-29T09:56:06Z</time>
      </trkpt>
      <trkpt lat="47.22163" lon="0.0904">
        <ele>33</ele>
        <time>2021-07-29T09:56:15Z</time>
      </trkpt>
      <trkpt lat="47.22158" lon="0.09027">
        <ele>33</ele>
        <time>2021-07-29T09:56:23Z</time>
      </trkpt>
      <trkpt lat="47.22152" lon="0.09014">
        <ele>33</ele>
        <time>2021-07-29T09:56:32Z</time>
      </trkpt>
      <trkpt lat="47.22146" lon="0.08997">
        <ele>33</ele>
        <time>2021-07-29T09:56:39Z</time>
      </trkpt>
      <trkpt lat="47.2214" lon="0.08983">
        <ele>33</ele>
        <time>2021-07-29T09:56:47Z</time>
      </trkpt>
      <trkpt lat="47.22135" lon="0.08971">
        <ele>33</ele>
        <time>2021-07-29T09:56:54Z</time>
      </trkpt>
      <trkpt lat="47.22131" lon="0.08958">
        <ele>33</ele>
        <time>2021-07-29T09:57:01Z</time>
      </trkpt>
      <trkpt lat="47.22128" lon="0.08943">
        <ele>33</ele>
        <time>2021-07-29T09:57:09Z</time>
      </trkpt>
      <trkpt lat="47.22126" lon="0.08929">
        <ele>33</ele>
        <time>2021-07-29T09:57:17Z</time>
      </trkpt>
      <trkpt lat="47.22123" lon="0.08914">
        <ele>33</ele>
        <time>2021-07-29T09:57:25Z</time>
      </trkpt>
      <trkpt lat="47.2212" lon="0.089">
        <ele>33</ele>
        <time>2021-07-29T09:57:32Z</time>
      </trkpt>
      <trkpt lat="47.22116" lon="0.08887">
        <ele>33</ele>
        <time>2021-07-29T09:57:39Z</time>
      </trkpt>
      <trkpt lat="47.2211" lon="0.08876">
        <ele>33</ele>
        <time>2021-07-29T09:57:46Z</time>
      </trkpt>
      <trkpt lat="47.22103" lon="0.08867">
        <ele>33</ele>
        <time>2021-07-29T09:57:53Z</time>
      </trkpt>
      <trkpt lat="47.22097" lon="0.08857">
        <ele>33</ele>
        <time>2021-07-29T09:58:00Z</time>
      </trkpt>
      <trkpt lat="47.22093" lon="0.08844">
        <ele>33</ele>
        <time>2021-07-29T09:58:07Z</time>
      </trkpt>
      <trkpt lat="47.22088" lon="0.08834">
        <ele>33</ele>
        <time>2021-07-29T09:58:14Z</time>
      </trkpt>
      <trkpt lat="47.22082" lon="0.08823">
        <ele>33</ele>
        <time>2021-07-29T09:58:22Z</time>
      </trkpt>
      <trkpt lat="47.22077" lon="0.08819">
        <ele>33</ele>
        <time>2021-07-29T09:59:04Z</time>
      </trkpt>
      <trkpt lat="47.22073" lon="0.08815">
        <ele>33</ele>
        <time>2021-07-29T09:59:42Z</time>
      </trkpt>
      <trkpt lat="47.22065" lon="0.08806">
        <ele>33</ele>
        <time>2021-07-29T09:59:51Z</time>
      </trkpt>
      <trkpt lat="47.22059" lon="0.08795">
        <ele>33</ele>
        <time>2021-07-29T09:59:59Z</time>
      </trkpt>
      <trkpt lat="47.22054" lon="0.08781">
        <ele>33</ele>
        <time>2021-07-29T10:00:07Z</time>
      </trkpt>
      <trkpt lat="47.22049" lon="0.08768">
        <ele>33</ele>
        <time>2021-07-29T10:00:15Z</time>
      </trkpt>
      <trkpt lat="47.22044" lon="0.08755">
        <ele>33</ele>
        <time>2021-07-29T10:00:23Z</time>
      </trkpt>
      <trkpt lat="47.22039" lon="0.08742">
        <ele>33</ele>
        <time>2021-07-29T10:00:31Z</time>
      </trkpt>
      <trkpt lat="47.22033" lon="0.08729">
        <ele>33</ele>
        <time>2021-07-29T10:00:39Z</time>
      </trkpt>
      <trkpt lat="47.22028" lon="0.08717">
        <ele>33</ele>
        <time>2021-07-29T10:00:46Z</time>
      </trkpt>
      <trkpt lat="47.22024" lon="0.08703">
        <ele>34</ele>
        <time>2021-07-29T10:00:53Z</time>
      </trkpt>
      <trkpt lat="47.2202" lon="0.08691">
        <ele>34</ele>
        <time>2021-07-29T10:01:01Z</time>
      </trkpt>
      <trkpt lat="47.22017" lon="0.08677">
        <ele>33</ele>
        <time>2021-07-29T10:01:08Z</time>
      </trkpt>
      <trkpt lat="47.2201" lon="0.08664">
        <ele>34</ele>
        <time>2021-07-29T10:01:16Z</time>
      </trkpt>
      <trkpt lat="47.22005" lon="0.08649">
        <ele>33</ele>
        <time>2021-07-29T10:01:24Z</time>
      </trkpt>
      <trkpt lat="47.22" lon="0.08637">
        <ele>33</ele>
        <time>2021-07-29T10:01:31Z</time>
      </trkpt>
      <trkpt lat="47.21997" lon="0.08623">
        <ele>33</ele>
        <time>2021-07-29T10:01:39Z</time>
      </trkpt>
      <trkpt lat="47.21993" lon="0.0861">
        <ele>33</ele>
        <time>2021-07-29T10:01:47Z</time>
      </trkpt>
      <trkpt lat="47.21988" lon="0.08598">
        <ele>33</ele>
        <time>2021-07-29T10:01:55Z</time>
      </trkpt>
      <trkpt lat="47.21984" lon="0.08584">
        <ele>33</ele>
        <time>2021-07-29T10:02:04Z</time>
      </trkpt>
      <trkpt lat="47.2198" lon="0.08571">
        <ele>33</ele>
        <time>2021-07-29T10:02:11Z</time>
      </trkpt>
      <trkpt lat="47.21977" lon="0.08557">
        <ele>34</ele>
        <time>2021-07-29T10:02:19Z</time>
      </trkpt>
      <trkpt lat="47.21973" lon="0.08542">
        <ele>33</ele>
        <time>2021-07-29T10:02:27Z</time>
      </trkpt>
      <trkpt lat="47.21969" lon="0.08528">
        <ele>33</ele>
        <time>2021-07-29T10:02:34Z</time>
      </trkpt>
      <trkpt lat="47.21966" lon="0.08515">
        <ele>33</ele>
        <time>2021-07-29T10:02:42Z</time>
      </trkpt>
      <trkpt lat="47.21962" lon="0.08501">
        <ele>33</ele>
        <time>2021-07-29T10:02:50Z</time>
      </trkpt>
      <trkpt lat="47.21959" lon="0.08489">
        <ele>33</ele>
        <time>2021-07-29T10:02:56Z</time>
      </trkpt>
      <trkpt lat="47.21956" lon="0.08476">
        <ele>34</ele>
        <time>2021-07-29T10:03:04Z</time>
      </trkpt>
      <trkpt lat="47.21952" lon="0.08463">
        <ele>34</ele>
        <time>2021-07-29T10:03:11Z</time>
      </trkpt>
      <trkpt lat="47.2195" lon="0.08449">
        <ele>33</ele>
        <time>2021-07-29T10:03:18Z</time>
      </trkpt>
      <trkpt lat="47.21948" lon="0.08438">
        <ele>33</ele>
        <time>2021-07-29T10:03:25Z</time>
      </trkpt>
      <trkpt lat="47.21942" lon="0.08425">
        <ele>33</ele>
        <time>2021-07-29T10:03:35Z</time>
      </trkpt>
      <trkpt lat="47.21937" lon="0.08412">
        <ele>33</ele>
        <time>2021-07-29T10:03:43Z</time>
      </trkpt>
      <trkpt lat="47.21932" lon="0.084">
        <ele>33</ele>
        <time>2021-07-29T10:03:50Z</time>
      </trkpt>
      <trkpt lat="47.21926" lon="0.08388">
        <ele>33</ele>
        <time>2021-07-29T10:03:58Z</time>
      </trkpt>
      <trkpt lat="47.21921" lon="0.08377">
        <ele>33</ele>
        <time>2021-07-29T10:04:05Z</time>
      </trkpt>
      <trkpt lat="47.21916" lon="0.08365">
        <ele>33</ele>
        <time>2021-07-29T10:04:12Z</time>
      </trkpt>
      <trkpt lat="47.21912" lon="0.08353">
        <ele>34</ele>
        <time>2021-07-29T10:04:19Z</time>
      </trkpt>
      <trkpt lat="47.21907" lon="0.08341">
        <ele>34</ele>
        <time>2021-07-29T10:04:26Z</time>
      </trkpt>
      <trkpt lat="47.21903" lon="0.08328">
        <ele>34</ele>
        <time>2021-07-29T10:04:33Z</time>
      </trkpt>
      <trkpt lat="47.21898" lon="0.08316">
        <ele>34</ele>
        <time>2021-07-29T10:04:40Z</time>
      </trkpt>
      <trkpt lat="47.21893" lon="0.08305">
        <ele>34</ele>
        <time>2021-07-29T10:04:47Z</time>
      </trkpt>
      <trkpt lat="47.21888" lon="0.08293">
        <ele>33</ele>
        <time>2021-07-29T10:04:55Z</time>
      </trkpt>
      <trkpt lat="47.21882" lon="0.08281">
        <ele>34</ele>
        <time>2021-07-29T10:05:02Z</time>
      </trkpt>
      <trkpt lat="47.21877" lon="0.08268">
        <ele>34</ele>
        <time>2021-07-29T10:05:10Z</time>
      </trkpt>
      <trkpt lat="47.21871" lon="0.08258">
        <ele>34</ele>
        <time>2021-07-29T10:05:17Z</time>
      </trkpt>
      <trkpt lat="47.21865" lon="0.08245">
        <ele>34</ele>
        <time>2021-07-29T10:05:25Z</time>
      </trkpt>
      <trkpt lat="47.21859" lon="0.08236">
        <ele>34</ele>
        <time>2021-07-29T10:05:32Z</time>
      </trkpt>
      <trkpt lat="47.21852" lon="0.08223">
        <ele>34</ele>
        <time>2021-07-29T10:05:40Z</time>
      </trkpt>
      <trkpt lat="47.21845" lon="0.08214">
        <ele>34</ele>
        <time>2021-07-29T10:05:48Z</time>
      </trkpt>
      <trkpt lat="47.21838" lon="0.08206">
        <ele>34</ele>
        <time>2021-07-29T10:05:54Z</time>
      </trkpt>
      <trkpt lat="47.21831" lon="0.08196">
        <ele>34</ele>
        <time>2021-07-29T10:06:02Z</time>
      </trkpt>
      <trkpt lat="47.21823" lon="0.08187">
        <ele>34</ele>
        <time>2021-07-29T10:06:09Z</time>
      </trkpt>
      <trkpt lat="47.21816" lon="0.08176">
        <ele>34</ele>
        <time>2021-07-29T10:06:18Z</time>
      </trkpt>
      <trkpt lat="47.21807" lon="0.08172">
        <ele>34</ele>
        <time>2021-07-29T10:06:25Z</time>
      </trkpt>
      <trkpt lat="47.21798" lon="0.08168">
        <ele>34</ele>
        <time>2021-07-29T10:06:32Z</time>
      </trkpt>
      <trkpt lat="47.21789" lon="0.08166">
        <ele>34</ele>
        <time>2021-07-29T10:06:39Z</time>
      </trkpt>
      <trkpt lat="47.21779" lon="0.08164">
        <ele>34</ele>
        <time>2021-07-29T10:06:48Z</time>
      </trkpt>
      <trkpt lat="47.21772" lon="0.08152">
        <ele>34</ele>
        <time>2021-07-29T10:07:16Z</time>
      </trkpt>
      <trkpt lat="47.21768" lon="0.08138">
        <ele>34</ele>
        <time>2021-07-29T10:07:39Z</time>
      </trkpt>
      <trkpt lat="47.21764" lon="0.08123">
        <ele>34</ele>
        <time>2021-07-29T10:07:48Z</time>
      </trkpt>
      <trkpt lat="47.2176" lon="0.0811">
        <ele>34</ele>
        <time>2021-07-29T10:07:55Z</time>
      </trkpt>
      <trkpt lat="47.21756" lon="0.08097">
        <ele>34</ele>
        <time>2021-07-29T10:08:03Z</time>
      </trkpt>
      <trkpt lat="47.21753" lon="0.08084">
        <ele>34</ele>
        <time>2021-07-29T10:08:11Z</time>
      </trkpt>
      <trkpt lat="47.2175" lon="0.08071">
        <ele>34</ele>
        <time>2021-07-29T10:08:19Z</time>
      </trkpt>
      <trkpt lat="47.21749" lon="0.0806">
        <ele>34</ele>
        <time>2021-07-29T10:08:41Z</time>
      </trkpt>
      <trkpt lat="47.21746" lon="0.08053">
        <ele>34</ele>
        <time>2021-07-29T10:09:11Z</time>
      </trkpt>
      <trkpt lat="47.21742" lon="0.08035">
        <ele>34</ele>
        <time>2021-07-29T10:09:23Z</time>
      </trkpt>
      <trkpt lat="47.21738" lon="0.08018">
        <ele>34</ele>
        <time>2021-07-29T10:09:33Z</time>
      </trkpt>
      <trkpt lat="47.21734" lon="0.08005">
        <ele>34</ele>
        <time>2021-07-29T10:10:02Z</time>
      </trkpt>
      <trkpt lat="47.21731" lon="0.07992">
        <ele>34</ele>
        <time>2021-07-29T10:10:15Z</time>
      </trkpt>
      <trkpt lat="47.21727" lon="0.07972">
        <ele>34</ele>
        <time>2021-07-29T10:10:26Z</time>
      </trkpt>
      <trkpt lat="47.21722" lon="0.07952">
        <ele>34</ele>
        <time>2021-07-29T10:10:35Z</time>
      </trkpt>
      <trkpt lat="47.21717" lon="0.07935">
        <ele>34</ele>
        <time>2021-07-29T10:10:43Z</time>
      </trkpt>
      <trkpt lat="47.21713" lon="0.07921">
        <ele>34</ele>
        <time>2021-07-29T10:10:51Z</time>
      </trkpt>
      <trkpt lat="47.21709" lon="0.07909">
        <ele>34</ele>
        <time>2021-07-29T10:10:58Z</time>
      </trkpt>
      <trkpt lat="47.21707" lon="0.07894">
        <ele>34</ele>
        <time>2021-07-29T10:11:06Z</time>
      </trkpt>
      <trkpt lat="47.21707" lon="0.07879">
        <ele>34</ele>
        <time>2021-07-29T10:11:13Z</time>
      </trkpt>
      <trkpt lat="47.21707" lon="0.07863">
        <ele>34</ele>
        <time>2021-07-29T10:11:25Z</time>
      </trkpt>
      <trkpt lat="47.21709" lon="0.0785">
        <ele>34</ele>
        <time>2021-07-29T10:11:34Z</time>
      </trkpt>
      <trkpt lat="47.21712" lon="0.07837">
        <ele>34</ele>
        <time>2021-07-29T10:11:43Z</time>
      </trkpt>
      <trkpt lat="47.21711" lon="0.07823">
        <ele>34</ele>
        <time>2021-07-29T10:11:51Z</time>
      </trkpt>
      <trkpt lat="47.2171" lon="0.07808">
        <ele>34</ele>
        <time>2021-07-29T10:11:57Z</time>
      </trkpt>
      <trkpt lat="47.21709" lon="0.07794">
        <ele>35</ele>
        <time>2021-07-29T10:12:05Z</time>
      </trkpt>
      <trkpt lat="47.21711" lon="0.0778">
        <ele>35</ele>
        <time>2021-07-29T10:12:13Z</time>
      </trkpt>
      <trkpt lat="47.21712" lon="0.07766">
        <ele>35</ele>
        <time>2021-07-29T10:12:20Z</time>
      </trkpt>
      <trkpt lat="47.21712" lon="0.07754">
        <ele>35</ele>
        <time>2021-07-29T10:12:27Z</time>
      </trkpt>
      <trkpt lat="47.21713" lon="0.07742">
        <ele>35</ele>
        <time>2021-07-29T10:12:34Z</time>
      </trkpt>
      <trkpt lat="47.21714" lon="0.07729">
        <ele>35</ele>
        <time>2021-07-29T10:12:40Z</time>
      </trkpt>
      <trkpt lat="47.21711" lon="0.07716">
        <ele>35</ele>
        <time>2021-07-29T10:12:48Z</time>
      </trkpt>
      <trkpt lat="47.21712" lon="0.07705">
        <ele>35</ele>
        <time>2021-07-29T10:13:05Z</time>
      </trkpt>
      <trkpt lat="47.21713" lon="0.07688">
        <ele>35</ele>
        <time>2021-07-29T10:13:12Z</time>
      </trkpt>
      <trkpt lat="47.21716" lon="0.07674">
        <ele>35</ele>
        <time>2021-07-29T10:13:20Z</time>
      </trkpt>
      <trkpt lat="47.21715" lon="0.07661">
        <ele>35</ele>
        <time>2021-07-29T10:13:27Z</time>
      </trkpt>
      <trkpt lat="47.21716" lon="0.07651">
        <ele>35</ele>
        <time>2021-07-29T10:13:39Z</time>
      </trkpt>
      <trkpt lat="47.21716" lon="0.07644">
        <ele>35</ele>
        <time>2021-07-29T10:14:13Z</time>
      </trkpt>
      <trkpt lat="47.21718" lon="0.07625">
        <ele>35</ele>
        <time>2021-07-29T10:14:27Z</time>
      </trkpt>
      <trkpt lat="47.21717" lon="0.07609">
        <ele>35</ele>
        <time>2021-07-29T10:14:36Z</time>
      </trkpt>
      <trkpt lat="47.21715" lon="0.07601">
        <ele>35</ele>
        <time>2021-07-29T10:16:30Z</time>
      </trkpt>
    </trkseg>
  </trk>
</gpx>